This is the latest recevied weather packets stored in our database for station/object N6RDS. If no packets are shown the sender has not sent any weather packets the latest 10 day(s).
| Time | Temp. | Humidity | Pressure | Rain* | Wind** | Luminosity | Snow |
|---|---|---|---|---|---|---|---|
| 1778103098 | 18.33° C | 27% | 1024.5 hPa | 0 mm | - | 356 W/m² | - |
| 1778102796 | 18.33° C | 28% | 1024.7 hPa | 0 mm | - | 707 W/m² | - |
| 1778102490 | 18.33° C | 28% | 1024.5 hPa | 0 mm | - | 350 W/m² | - |
| 1778102186 | 18.33° C | 28% | 1024.8 hPa | 0 mm | - | 345 W/m² | - |
| 1778101883 | 19.44° C | 28% | 1024.7 hPa | 0 mm | - | 473 W/m² | - |
| 1778101580 | 18.33° C | 30% | 1024.7 hPa | 0 mm | - | 470 W/m² | - |
| 1778101276 | 18.89° C | 30% | 1024.4 hPa | 0 mm | - | 489 W/m² | - |
| 1778100973 | 17.78° C | 29% | 1024.5 hPa | 0 mm | - | 651 W/m² | - |
| 1778100668 | 17.78° C | 29% | 1024.7 hPa | 0 mm | - | 788 W/m² | - |
| 1778100367 | 17.78° C | 31% | 1024.8 hPa | 0 mm | - | 884 W/m² | - |
| 1778100063 | 17.78° C | 29% | 1024.5 hPa | 0 mm | - | 170 W/m² | - |
| 1778099762 | 17.78° C | 31% | 1024.5 hPa | 0 mm | - | 882 W/m² | - |
| 1778099458 | 18.89° C | 29% | 1024.8 hPa | 0 mm | - | 375 W/m² | - |
| 1778099155 | 17.22° C | 31% | 1024.8 hPa | 0 mm | - | 518 W/m² | - |
| 1778098851 | 17.78° C | 29% | 1024.7 hPa | 0 mm | - | 864 W/m² | - |
| 1778098549 | 17.78° C | 30% | 1024.7 hPa | 0 mm | - | 313 W/m² | - |
| 1778098246 | 17.78° C | 30% | 1024.8 hPa | 0 mm | - | 827 W/m² | - |
| 1778097942 | 17.78° C | 28% | 1024.9 hPa | 0 mm | - | 822 W/m² | - |
| 1778097639 | 17.78° C | 28% | 1024.7 hPa | 0 mm | - | 804 W/m² | - |
| 1778097336 | 18.89° C | 27% | 1024.5 hPa | 0 mm | - | 733 W/m² | - |
| 1778097032 | 17.22° C | 31% | 1024.8 hPa | 0 mm | - | 816 W/m² | - |
| 1778096730 | 17.78° C | 28% | 1024.8 hPa | 0 mm | - | 818 W/m² | - |
| 1778096426 | 16.67° C | 32% | 1024.9 hPa | 0 mm | - | 840 W/m² | - |
| 1778096123 | 17.22° C | 31% | 1024.8 hPa | 0 mm | - | 155 W/m² | - |
| 1778095820 | 17.78° C | 28% | 1024.7 hPa | 0 mm | - | 865 W/m² | - |
* Rain latest hour (hover to see other rain measurements)
** Current wind speed in m/s (hover to see current wind gust speed)